Time;durP1;ratioP1;P1;durP2;ratioP2;P2;SDS_P1;SDS_P2;PMS_P1;PMS_P2;Temp;Humidity;BMP_temperature;BMP_pressure;BME280_temperature;BME280_humidity;BME280_pressure;Samples;Min_cycle;Max_cycle;Signal;HPM_P1;HPM_P2
2022/11/04 00:01:05;;;;;;;29.92;17.30;;;;;;;9.09;100.00;100167.91;5102563;28;20028;-76
2022/11/04 00:03:30;;;;;;;25.75;16.65;;;;;;;9.09;100.00;100156.63;5115201;28;20054;-76
2022/11/04 00:05:59;;;;;;;30.70;16.92;;;;;;;9.03;100.00;100160.25;5103202;28;20460;-75
2022/11/04 00:08:25;;;;;;;31.55;16.90;;;;;;;8.96;100.00;100163.94;5111016;28;20031;-76
2022/11/04 00:13:41;;;;;;;29.65;17.30;;;;;;;8.86;100.00;100170.25;5114303;28;20406;-76
2022/11/04 00:18:51;;;;;;;25.13;15.23;;;;;;;8.75;100.00;100178.34;5115813;28;20030;-76
2022/11/04 00:29:29;;;;;;;24.85;14.02;;;;;;;8.62;100.00;100190.81;5105058;28;20298;-75
2022/11/04 00:34:38;;;;;;;20.35;13.00;;;;;;;8.43;100.00;100195.59;5089823;28;20043;-75
2022/11/04 00:37:04;;;;;;;25.27;14.45;;;;;;;8.37;100.00;100192.28;5101628;28;20029;-75
2022/11/04 00:39:29;;;;;;;21.88;13.18;;;;;;;8.24;100.00;100186.56;5102403;28;20038;-75
2022/11/04 00:41:54;;;;;;;23.45;13.40;;;;;;;8.19;100.00;100189.25;5104233;28;20031;-75
2022/11/04 00:44:19;;;;;;;22.63;14.38;;;;;;;8.15;100.00;100198.00;5114021;28;20015;-75
2022/11/04 00:46:45;;;;;;;20.15;13.85;;;;;;;8.08;100.00;100191.25;5115050;28;20028;-75
2022/11/04 00:49:11;;;;;;;22.48;14.05;;;;;;;8.10;100.00;100193.81;5097608;28;20127;-75
2022/11/04 00:51:37;;;;;;;24.77;13.93;;;;;;;8.02;100.00;100200.94;5101099;28;20455;-75
2022/11/04 00:54:02;;;;;;;21.75;13.98;;;;;;;7.98;100.00;100207.94;5114819;28;20032;-76
2022/11/04 00:56:27;;;;;;;24.75;14.55;;;;;;;7.96;100.00;100222.69;5111028;28;20106;-75
2022/11/04 00:58:53;;;;;;;24.63;14.82;;;;;;;7.94;100.00;100225.28;5100879;28;20571;-75
2022/11/04 01:01:18;;;;;;;29.45;15.60;;;;;;;7.89;100.00;100221.97;5111276;28;20031;-75
2022/11/04 01:03:45;;;;;;;28.83;15.82;;;;;;;7.91;100.00;100220.22;5115067;28;20530;-75
2022/11/04 01:06:10;;;;;;;27.95;16.23;;;;;;;7.91;100.00;100230.59;5113613;28;20026;-75
2022/11/04 01:08:35;;;;;;;36.92;17.33;;;;;;;7.92;100.00;100228.84;5105336;28;20061;-75
2022/11/04 01:11:06;;;;;;;32.78;16.50;;;;;;;7.82;100.00;100210.03;5114767;28;20111;-75
2022/11/04 01:13:31;;;;;;;33.95;16.67;;;;;;;7.89;100.00;100234.09;5113471;27;20063;-75
2022/11/04 01:15:58;;;;;;;37.42;17.52;;;;;;;7.87;100.00;100239.31;5107210;28;20063;-75
2022/11/04 01:18:24;;;;;;;29.75;16.48;;;;;;;7.89;100.00;100239.28;5099905;28;20032;-75
2022/11/04 01:20:49;;;;;;;36.28;17.20;;;;;;;7.94;100.00;100250.41;5113234;28;20031;-75
2022/11/04 01:23:15;;;;;;;35.03;17.58;;;;;;;8.04;100.00;100257.09;5114223;28;20031;-75
2022/11/04 01:25:40;;;;;;;42.90;17.50;;;;;;;8.12;100.00;100249.16;5112222;27;20019;-75
2022/11/04 01:28:06;;;;;;;42.75;18.02;;;;;;;8.20;100.00;100255.84;5096029;28;20028;-76
2022/11/04 01:30:32;;;;;;;39.20;18.55;;;;;;;8.20;100.00;100257.59;5102829;28;20477;-75
2022/11/04 01:32:57;;;;;;;39.63;17.77;;;;;;;8.23;100.00;100247.16;5114140;28;20038;-75
2022/11/04 01:35:22;;;;;;;37.25;17.02;;;;;;;8.25;100.00;100239.34;5113604;28;20106;-75
2022/11/04 01:37:48;;;;;;;35.63;16.05;;;;;;;8.10;100.00;100236.19;5110625;28;20107;-75
2022/11/04 01:40:13;;;;;;;35.60;15.20;;;;;;;8.09;100.00;100242.28;5103748;28;20085;-75
2022/11/04 01:42:38;;;;;;;24.02;13.07;;;;;;;8.00;100.00;100247.69;5113554;28;20023;-75
2022/11/04 01:45:04;;;;;;;25.08;13.32;;;;;;;7.93;100.00;100248.72;5113957;28;20032;-75
2022/11/04 01:47:34;;;;;;;31.08;13.15;;;;;;;7.86;100.00;100248.00;5103076;28;20115;-75
2022/11/04 01:50:14;;;;;;;27.25;12.32;;;;;;;7.81;100.00;100244.63;5100574;28;20027;-75
2022/11/04 01:52:57;;;;;;;22.67;11.13;;;;;;;7.71;100.00;100249.16;5113782;28;20108;-75
2022/11/04 01:55:26;;;;;;;24.58;11.45;;;;;;;7.65;100.00;100249.31;5106334;28;20463;-75
2022/11/04 01:57:55;;;;;;;24.15;10.85;;;;;;;7.64;100.00;100249.31;5110222;28;20024;-75
2022/11/04 02:00:21;;;;;;;21.42;10.57;;;;;;;7.58;100.00;100239.91;5101850;28;20032;-75
2022/11/04 02:03:00;;;;;;;21.77;11.30;;;;;;;7.55;100.00;100247.75;5112824;28;20360;-76
2022/11/04 02:05:28;;;;;;;21.13;10.00;;;;;;;7.49;100.00;100253.94;5112710;28;20034;-75
2022/11/04 02:07:56;;;;;;;22.58;9.65;;;;;;;7.47;100.00;100254.88;5111124;28;20062;-75
2022/11/04 02:10:25;;;;;;;21.55;9.70;;;;;;;7.44;100.00;100244.56;5110254;28;20096;-75
2022/11/04 02:12:52;;;;;;;19.05;9.93;;;;;;;7.40;100.00;100250.69;5113381;28;20027;-75
2022/11/04 02:15:32;;;;;;;18.17;9.50;;;;;;;7.35;100.00;100244.72;5112709;28;20031;-75
2022/11/04 02:18:16;;;;;;;20.45;9.55;;;;;;;7.31;100.00;100243.94;5110107;28;20063;-75
2022/11/04 02:20:53;;;;;;;20.65;8.23;;;;;;;7.30;100.00;100255.19;5095352;28;20027;-75
2022/11/04 02:23:43;;;;;;;19.10;8.25;;;;;;;7.31;100.00;100258.66;5112530;28;20054;-75
2022/11/04 02:27:10;;;;;;;20.77;8.40;;;;;;;7.26;100.00;100262.19;5096322;28;20038;-75
2022/11/04 02:30:00;;;;;;;19.60;7.70;;;;;;;7.25;100.00;100263.06;5051564;28;20028;-75
2022/11/04 02:32:41;;;;;;;13.48;7.15;;;;;;;7.22;100.00;100263.09;5064486;28;20032;-75
2022/11/04 02:35:27;;;;;;;13.68;7.43;;;;;;;7.19;100.00;100265.78;5108403;28;20363;-75
2022/11/04 02:38:03;;;;;;;15.55;7.18;;;;;;;7.16;100.00;100272.75;5112737;28;20099;-75
2022/11/04 02:40:59;;;;;;;12.98;7.05;;;;;;;7.13;100.00;100272.78;5085993;28;20147;-75
2022/11/04 02:43:36;;;;;;;14.13;6.45;;;;;;;7.11;100.00;100266.81;5091547;28;20051;-75
2022/11/04 02:46:11;;;;;;;16.05;6.22;;;;;;;7.07;100.00;100273.78;5109449;28;20488;-75
2022/11/04 02:48:46;;;;;;;18.30;5.97;;;;;;;7.03;100.00;100272.13;5096500;28;20042;-75
2022/11/04 02:51:36;;;;;;;17.83;6.32;;;;;;;7.00;100.00;100273.03;5105336;28;20015;-75
2022/11/04 02:54:10;;;;;;;14.27;5.70;;;;;;;6.93;100.00;100267.97;5112806;28;20457;-75
2022/11/04 02:56:41;;;;;;;12.50;5.95;;;;;;;6.94;100.00;100270.56;5113164;28;20030;-75
2022/11/04 02:59:11;;;;;;;13.77;6.18;;;;;;;6.92;100.00;100281.81;5102443;28;20028;-75
2022/11/04 03:01:40;;;;;;;14.57;6.18;;;;;;;6.89;100.00;100263.72;5112429;28;20023;-75
2022/11/04 03:04:13;;;;;;;15.07;5.78;;;;;;;6.84;100.00;100276.78;5112914;28;20119;-75
2022/11/04 03:06:40;;;;;;;12.77;5.93;;;;;;;6.84;100.00;100273.34;5112114;28;20443;-75
2022/11/04 03:09:08;;;;;;;16.45;5.50;;;;;;;6.80;100.00;100270.78;5102495;28;20472;-75
2022/11/04 03:11:35;;;;;;;16.15;5.68;;;;;;;6.73;100.00;100270.91;5103854;28;20032;-75
2022/11/04 03:14:03;;;;;;;11.98;5.18;;;;;;;6.78;100.00;100276.88;5111745;28;20077;-75
2022/11/04 03:16:37;;;;;;;15.82;5.50;;;;;;;6.71;100.00;100283.91;5101311;28;20024;-75
2022/11/04 03:19:18;;;;;;;11.50;5.00;;;;;;;6.71;100.00;100288.22;5111365;28;20031;-75
2022/11/04 03:21:58;;;;;;;12.80;4.95;;;;;;;6.67;100.00;100287.44;5117055;28;20106;-75
2022/11/04 03:24:24;;;;;;;11.65;4.50;;;;;;;6.64;100.00;100278.81;5116571;27;20031;-75
2022/11/04 03:27:12;;;;;;;15.05;4.95;;;;;;;6.61;100.00;100282.34;5116049;28;20120;-75
2022/11/04 03:29:49;;;;;;;10.10;4.75;;;;;;;6.60;100.00;100282.34;5111519;28;20020;-75
2022/11/04 03:32:39;;;;;;;14.27;4.30;;;;;;;6.58;100.00;100284.97;5097360;28;20036;-75
2022/11/04 03:35:05;;;;;;;15.15;4.38;;;;;;;6.57;100.00;100280.66;5106832;28;20038;-75
2022/11/04 03:37:31;;;;;;;12.15;4.82;;;;;;;6.53;100.00;100287.63;5116010;28;20018;-75
2022/11/04 03:39:57;;;;;;;13.88;5.10;;;;;;;6.44;100.00;100279.13;5108643;28;20023;-75
2022/11/04 03:42:23;;;;;;;11.38;4.55;;;;;;;6.44;100.00;100280.03;5115781;28;20471;-75
2022/11/04 03:44:50;;;;;;;18.88;5.00;;;;;;;6.44;100.00;100292.09;5103886;27;20095;-75
2022/11/04 03:47:18;;;;;;;7.53;4.35;;;;;;;6.41;100.00;100294.72;5115211;28;20463;-75
2022/11/04 03:49:46;;;;;;;17.23;4.80;;;;;;;6.38;100.00;100285.28;5102446;28;20023;-75
2022/11/04 03:52:12;;;;;;;9.82;4.47;;;;;;;6.37;100.00;100295.66;5107620;28;20066;-75
2022/11/04 03:54:38;;;;;;;9.60;4.25;;;;;;;6.33;100.00;100289.66;5098663;28;20039;-75
2022/11/04 03:57:25;;;;;;;14.60;4.20;;;;;;;6.33;100.00;100294.84;5095876;28;20024;-75
2022/11/04 03:59:50;;;;;;;11.77;4.32;;;;;;;6.29;100.00;100283.69;5090426;28;20424;-75
2022/11/04 04:02:21;;;;;;;15.05;4.60;;;;;;;6.23;100.00;100290.69;5094456;28;20079;-75
2022/11/04 04:04:58;;;;;;;13.57;4.57;;;;;;;6.21;100.00;100290.72;5093242;28;20126;-75
2022/11/04 04:07:49;;;;;;;16.55;4.40;;;;;;;6.19;100.00;100281.25;5094556;28;20028;-75
2022/11/04 04:10:39;;;;;;;9.70;4.05;;;;;;;6.17;100.00;100283.00;5094126;28;20111;-75
2022/11/04 04:13:10;;;;;;;15.40;5.18;;;;;;;6.14;100.00;100283.91;5082546;28;20028;-75
2022/11/04 04:15:52;;;;;;;15.73;4.88;;;;;;;6.12;100.00;100287.41;5094807;28;20143;-75
2022/11/04 04:18:25;;;;;;;12.50;4.50;;;;;;;6.06;100.00;100290.94;5083257;28;20365;-75
2022/11/04 04:20:55;;;;;;;10.82;4.72;;;;;;;6.05;100.00;100297.00;5094196;28;20119;-75
2022/11/04 04:29:00;;;;;;;12.07;5.45;;;;;;;5.91;100.00;100304.88;5092593;28;20498;-74
2022/11/04 04:34:13;;;;;;;18.20;6.18;;;;;;;5.87;100.00;100310.97;5094638;28;20035;-75
2022/11/04 04:37:11;;;;;;;12.18;5.28;;;;;;;5.84;100.00;100317.03;5094322;28;20118;-75
2022/11/04 04:45:33;;;;;;;14.02;6.18;;;;;;;5.73;100.00;100323.22;5080439;28;20437;-75
2022/11/04 04:47:59;;;;;;;16.60;6.70;;;;;;;5.68;100.00;100307.75;5093246;28;20040;-75
2022/11/04 04:50:30;;;;;;;12.77;6.03;;;;;;;5.67;100.00;100315.53;5092530;28;20076;-75
2022/11/04 04:52:58;;;;;;;15.73;6.40;;;;;;;5.64;100.00;100327.63;5094944;28;20035;-75
2022/11/04 04:55:23;;;;;;;17.05;6.50;;;;;;;5.61;100.00;100322.47;5094404;28;20032;-75
2022/11/04 04:57:49;;;;;;;16.10;7.18;;;;;;;5.61;100.00;100324.22;5094036;28;20153;-75
2022/11/04 05:00:17;;;;;;;18.02;7.72;;;;;;;5.61;100.00;100330.25;5092063;28;20150;-75
2022/11/04 05:02:43;;;;;;;20.23;7.32;;;;;;;5.63;100.00;100330.25;5094428;28;20054;-75
2022/11/04 05:05:10;;;;;;;20.45;7.88;;;;;;;5.66;100.00;100332.78;5093559;28;20407;-75
2022/11/04 05:07:35;;;;;;;17.35;8.23;;;;;;;5.63;100.00;100336.25;5094472;28;20063;-75
2022/11/04 05:10:00;;;;;;;16.30;8.15;;;;;;;5.63;100.00;100338.00;5092230;28;20069;-75
2022/11/04 05:13:24;;;;;;;28.60;9.63;;;;;;;5.66;100.00;100334.50;5093225;28;20489;-75
2022/11/04 05:15:11;;;;;;;20.67;8.82;;;;;;;5.70;100.00;100346.53;5092373;28;20444;-74
2022/11/04 05:17:36;;;;;;;22.42;9.18;;;;;;;5.74;100.00;100343.03;5093872;28;20055;-75
2022/11/04 05:20:02;;;;;;;29.15;9.93;;;;;;;5.81;100.00;100348.13;5092470;28;20034;-75
2022/11/04 05:22:27;;;;;;;22.13;9.43;;;;;;;5.86;100.00;100350.66;5093139;28;20103;-75
2022/11/04 05:24:52;;;;;;;20.85;9.45;;;;;;;5.87;100.00;100360.13;5093959;28;20039;-75
2022/11/04 05:27:18;;;;;;;23.52;9.10;;;;;;;5.89;100.00;100345.44;5093058;28;20099;-74
2022/11/04 05:29:43;;;;;;;21.75;8.80;;;;;;;5.95;100.00;100357.47;5093128;28;20149;-75
2022/11/04 05:32:08;;;;;;;24.08;9.13;;;;;;;5.94;100.00;100368.69;5093635;28;20097;-75
2022/11/04 05:34:33;;;;;;;18.75;8.20;;;;;;;5.95;100.00;100368.69;5092998;28;20039;-75
2022/11/04 05:36:59;;;;;;;22.40;8.77;;;;;;;5.94;100.00;100368.69;5094077;28;20481;-75
2022/11/04 05:39:24;;;;;;;21.45;8.98;;;;;;;5.97;100.00;100372.09;5077397;28;20047;-75
2022/11/04 05:41:49;;;;;;;24.20;8.95;;;;;;;6.01;100.00;100360.84;5092383;28;20540;-75
2022/11/04 05:44:14;;;;;;;18.65;8.25;;;;;;;6.04;100.00;100363.38;5093305;28;20031;-75
2022/11/04 05:46:40;;;;;;;21.65;9.57;;;;;;;5.98;100.00;100352.25;5093455;28;20532;-75
2022/11/04 05:49:05;;;;;;;21.38;8.45;;;;;;;6.12;100.00;100376.25;5092013;28;20445;-75
2022/11/04 05:51:31;;;;;;;19.50;8.20;;;;;;;6.15;100.00;100371.03;5092587;28;20060;-75
2022/11/04 05:53:57;;;;;;;16.55;7.95;;;;;;;6.15;100.00;100380.50;5092927;28;20062;-75
2022/11/04 05:56:22;;;;;;;24.50;9.30;;;;;;;6.11;100.00;100377.09;5093199;28;20472;-75
2022/11/04 05:58:47;;;;;;;18.33;7.70;;;;;;;6.08;100.00;100382.31;5093544;28;20016;-75
2022/11/04 06:01:34;;;;;;;20.25;7.07;;;;;;;6.04;100.00;100385.81;5089865;28;20052;-75
2022/11/04 06:04:00;;;;;;;19.08;6.95;;;;;;;5.97;100.00;100389.38;5091838;28;20020;-75
2022/11/04 06:06:28;;;;;;;20.98;6.95;;;;;;;5.93;100.00;100387.69;5093214;28;20031;-75
2022/11/04 06:08:54;;;;;;;18.65;7.28;;;;;;;5.85;100.00;100395.50;5091550;28;20027;-75
2022/11/04 06:11:21;;;;;;;20.42;7.18;;;;;;;5.79;100.00;100387.84;5090450;28;20024;-75
2022/11/04 06:13:47;;;;;;;15.45;7.07;;;;;;;5.84;100.00;100397.22;5092698;28;20081;-75
2022/11/04 06:16:12;;;;;;;17.90;7.25;;;;;;;5.87;100.00;100392.03;5090204;28;20028;-75
2022/11/04 06:18:38;;;;;;;17.92;7.35;;;;;;;5.93;100.00;100395.47;5093371;28;20028;-75
2022/11/04 06:21:12;;;;;;;24.83;7.13;;;;;;;5.92;100.00;100397.16;5091969;28;20099;-75
2022/11/04 06:23:37;;;;;;;18.45;7.28;;;;;;;5.82;100.00;100393.81;5092535;28;20180;-75
2022/11/04 06:26:03;;;;;;;17.30;7.15;;;;;;;5.77;100.00;100403.34;5090850;28;21015;-75
2022/11/04 06:28:28;;;;;;;17.98;7.30;;;;;;;5.68;100.00;100402.59;5092443;28;20031;-75
2022/11/04 06:30:56;;;;;;;15.45;6.80;;;;;;;5.64;100.00;100405.22;5091768;28;20036;-75
2022/11/04 06:33:21;;;;;;;16.50;6.82;;;;;;;5.59;100.00;100411.28;5091923;28;20024;-75
2022/11/04 06:35:47;;;;;;;15.68;6.72;;;;;;;5.52;100.00;100409.63;5091333;28;20107;-75
2022/11/04 06:38:12;;;;;;;23.50;6.90;;;;;;;5.46;100.00;100414.88;5092138;28;20016;-75
2022/11/04 06:40:37;;;;;;;13.07;6.15;;;;;;;5.48;100.00;100413.13;5092730;28;20024;-75
2022/11/04 06:43:02;;;;;;;17.45;7.35;;;;;;;5.41;100.00;100420.09;5091128;28;20035;-75
2022/11/04 06:45:28;;;;;;;13.38;6.72;;;;;;;5.44;100.00;100426.97;5091168;28;20103;-75
2022/11/04 06:47:53;;;;;;;16.13;7.28;;;;;;;5.43;100.00;100427.81;5091769;28;20496;-75
2022/11/04 06:50:18;;;;;;;16.52;7.28;;;;;;;5.40;100.00;100424.41;5091247;28;20032;-75
2022/11/04 06:52:44;;;;;;;14.32;6.32;;;;;;;5.44;100.00;100421.81;5091827;28;20043;-74
2022/11/04 06:55:09;;;;;;;16.70;7.13;;;;;;;5.46;100.00;100427.78;5092627;28;20016;-75
2022/11/04 06:57:34;;;;;;;12.23;6.47;;;;;;;5.48;100.00;100436.41;5090983;28;20795;-75
2022/11/04 07:00:00;;;;;;;18.63;7.10;;;;;;;5.53;100.00;100437.22;5091551;28;20475;-75
2022/11/04 07:02:25;;;;;;;17.30;7.32;;;;;;;5.58;100.00;100435.44;5090560;28;20024;-74
2022/11/04 07:04:51;;;;;;;19.15;7.60;;;;;;;5.68;100.00;100444.81;5092098;28;20027;-74
2022/11/04 07:07:16;;;;;;;16.30;7.38;;;;;;;5.78;100.00;100437.81;5092397;28;20070;-74
2022/11/04 07:09:41;;;;;;;21.35;7.68;;;;;;;5.90;100.00;100447.22;5092492;28;20032;-75
2022/11/04 07:12:07;;;;;;;105.80;53.95;;;;;;;6.00;100.00;100448.84;5092086;28;20111;-75
2022/11/04 07:14:32;;;;;;;74.32;38.15;;;;;;;6.08;100.00;100447.91;5091603;28;20044;-75
2022/11/04 07:16:57;;;;;;;112.07;55.53;;;;;;;6.22;100.00;100454.66;5092347;28;20020;-75
2022/11/04 07:19:22;;;;;;;99.45;48.35;;;;;;;6.31;100.00;100454.50;5089656;28;20055;-75
2022/11/04 07:21:48;;;;;;;93.07;47.78;;;;;;;6.45;100.00;100456.97;5091875;28;20020;-75
2022/11/04 07:24:13;;;;;;;104.32;53.38;;;;;;;6.55;100.00;100464.56;5087826;28;20028;-75
2022/11/04 07:26:38;;;;;;;59.67;29.90;;;;;;;6.65;100.00;100467.91;5090152;28;20024;-75
2022/11/04 07:29:05;;;;;;;38.90;21.33;;;;;;;6.74;100.00;100470.38;5092464;28;20023;-75
2022/11/04 07:31:31;;;;;;;36.35;19.85;;;;;;;6.78;100.00;100458.25;5090653;28;20468;-76
2022/11/04 07:33:56;;;;;;;37.70;18.65;;;;;;;6.86;100.00;100455.53;5087545;28;20183;-76
2022/11/04 07:36:21;;;;;;;35.38;13.48;;;;;;;6.87;100.00;100455.53;5091919;28;20156;-76
2022/11/04 07:38:47;;;;;;;23.75;12.63;;;;;;;6.92;100.00;100463.22;5090710;28;20021;-75
2022/11/04 07:41:12;;;;;;;28.05;10.68;;;;;;;7.02;100.00;100472.56;5088952;28;20024;-74
2022/11/04 07:43:38;;;;;;;36.53;12.90;;;;;;;7.05;100.00;100475.13;5099312;28;20031;-75
2022/11/04 07:46:06;;;;;;;27.52;10.50;;;;;;;7.06;100.00;100476.81;5090064;28;20105;-75
2022/11/04 07:48:32;;;;;;;24.58;9.93;;;;;;;7.11;100.00;100482.81;5110946;28;20036;-75
2022/11/04 07:50:58;;;;;;;21.40;9.90;;;;;;;7.19;100.00;100478.38;5090104;28;20143;-75
2022/11/04 07:53:25;;;;;;;24.77;9.73;;;;;;;7.21;100.00;100473.16;5096032;28;20031;-75
2022/11/04 07:55:50;;;;;;;25.63;9.50;;;;;;;7.30;100.00;100485.97;5104636;28;20111;-75
2022/11/04 07:58:19;;;;;;;30.83;10.18;;;;;;;7.38;100.00;100491.03;5097874;28;20107;-75
2022/11/04 08:00:45;;;;;;;29.48;10.98;;;;;;;7.46;100.00;100489.19;5102332;28;20054;-76
2022/11/04 08:03:10;;;;;;;33.97;12.25;;;;;;;7.58;100.00;100495.88;5101403;28;20055;-75
2022/11/04 08:05:35;;;;;;;37.95;13.00;;;;;;;7.69;100.00;100492.25;5094734;28;20487;-76
2022/11/04 08:08:00;;;;;;;34.40;12.48;;;;;;;7.73;100.00;100487.84;5091397;28;20028;-77
2022/11/04 08:10:27;;;;;;;30.20;11.43;;;;;;;7.73;100.00;100491.31;5094162;28;20387;-76
2022/11/04 08:12:52;;;;;;;27.17;10.88;;;;;;;7.68;100.00;100493.13;5095688;28;20099;-77
2022/11/04 08:15:17;;;;;;;24.80;10.85;;;;;;;7.59;100.00;100500.22;5094328;28;20523;-76
2022/11/04 08:17:42;;;;;;;23.75;10.52;;;;;;;7.49;100.00;100502.97;5091408;28;20036;-76
2022/11/04 08:20:08;;;;;;;24.05;9.90;;;;;;;7.44;100.00;100506.50;5092555;28;20027;-76
2022/11/04 08:22:34;;;;;;;19.10;9.30;;;;;;;7.36;100.00;100505.78;5093602;28;20494;-77
2022/11/04 08:24:59;;;;;;;25.05;9.75;;;;;;;7.34;100.00;100515.31;5094511;28;20028;-76
2022/11/04 08:27:24;;;;;;;24.02;10.30;;;;;;;7.32;100.00;100512.72;5092799;28;20476;-76
2022/11/04 08:29:50;;;;;;;25.73;10.23;;;;;;;7.31;100.00;100521.38;5093013;28;20039;-77
2022/11/04 08:32:15;;;;;;;25.50;11.15;;;;;;;7.26;100.00;100524.06;5095048;28;20051;-76
2022/11/04 08:34:41;;;;;;;23.10;10.27;;;;;;;7.21;100.00;100531.03;5094841;28;20024;-76
2022/11/04 08:37:06;;;;;;;25.88;11.88;;;;;;;7.21;100.00;100536.22;5093773;28;20020;-77
2022/11/04 08:39:32;;;;;;;29.98;12.20;;;;;;;7.24;100.00;100533.59;5090722;28;20403;-76
2022/11/04 08:41:57;;;;;;;26.70;12.13;;;;;;;7.33;100.00;100539.53;5096112;28;20393;-76
2022/11/04 08:44:23;;;;;;;24.45;11.88;;;;;;;7.47;100.00;100543.63;5104679;28;20353;-77
2022/11/04 08:46:48;;;;;;;32.00;13.45;;;;;;;7.57;100.00;100546.06;5102163;28;20028;-76
2022/11/04 08:49:14;;;;;;;33.08;13.30;;;;;;;7.67;100.00;100545.91;5097238;28;20073;-76
2022/11/04 08:51:44;;;;;;;32.65;12.93;;;;;;;7.70;100.00;100540.66;5093351;28;20075;-76
2022/11/04 08:54:09;;;;;;;32.80;12.75;;;;;;;7.70;100.00;100538.06;5092988;28;20032;-76
2022/11/04 08:56:37;;;;;;;31.75;13.38;;;;;;;7.81;100.00;100550.84;5108004;28;20117;-76
2022/11/04 08:59:04;;;;;;;28.33;13.43;;;;;;;7.90;100.00;100555.03;5105343;27;20020;-76
2022/11/04 09:01:32;;;;;;;32.63;13.40;;;;;;;7.94;100.00;100561.88;5104939;28;20027;-76
2022/11/04 09:03:58;;;;;;;30.65;13.75;;;;;;;7.96;100.00;100555.78;5114206;28;20024;-77
2022/11/04 09:06:26;;;;;;;30.85;13.52;;;;;;;7.93;100.00;100545.47;5114481;28;20032;-76
2022/11/04 09:08:55;;;;;;;38.85;13.18;;;;;;;8.06;100.00;100564.28;5114661;28;20034;-77
2022/11/04 09:11:21;;;;;;;35.47;14.30;;;;;;;8.11;100.00;100559.00;5103592;28;20100;-76
2022/11/04 09:13:47;;;;;;;31.73;14.27;;;;;;;8.28;100.00;100566.50;5095621;28;20454;-75
2022/11/04 09:16:13;;;;;;;40.60;15.20;;;;;;;8.37;100.00;100571.50;5093524;28;20024;-75
2022/11/04 09:18:39;;;;;;;41.20;15.38;;;;;;;8.49;100.00;100575.66;5091338;28;20475;-76
2022/11/04 09:21:07;;;;;;;39.53;15.07;;;;;;;8.66;100.00;100577.06;5098444;28;20039;-76
2022/11/04 09:23:32;;;;;;;42.80;15.68;;;;;;;8.71;100.00;100579.56;5098390;28;20425;-75
2022/11/04 09:26:12;;;;;;;38.30;14.93;;;;;;;8.81;100.00;100582.81;5094594;28;20024;-75
2022/11/04 09:28:39;;;;;;;37.00;15.18;;;;;;;8.88;100.00;100581.81;5103885;28;20035;-75
2022/11/04 09:31:10;;;;;;;34.28;14.52;;;;;;;8.97;100.00;100589.41;5110346;28;20102;-75
2022/11/04 09:33:35;;;;;;;36.72;15.55;;;;;;;9.07;100.00;100590.94;5097410;28;20410;-75
2022/11/04 09:36:00;;;;;;;40.35;14.80;;;;;;;9.13;100.00;100585.59;5107473;28;20027;-75
2022/11/04 09:38:26;;;;;;;30.42;14.38;;;;;;;9.24;100.00;100595.75;5101746;28;20443;-75
2022/11/04 09:40:51;;;;;;;28.30;13.27;;;;;;;9.30;100.00;100603.44;5091638;28;20027;-75
2022/11/04 09:43:31;;;;;;;29.63;13.10;;;;;;;9.27;100.00;100613.06;5088386;28;20024;-74
2022/11/04 09:45:58;;;;;;;31.23;13.02;;;;;;;9.35;100.00;100616.34;5098989;28;20029;-76
2022/11/04 09:48:32;;;;;;;22.05;11.15;;;;;;;9.34;100.00;100618.09;5098327;28;20044;-76
2022/11/04 09:51:02;;;;;;;25.70;11.90;;;;;;;9.44;100.00;100623.94;5087376;28;20035;-75
2022/11/04 09:53:41;;;;;;;28.08;12.63;;;;;;;9.44;100.00;100623.94;5096640;28;20024;-76
2022/11/04 09:56:20;;;;;;;21.45;11.68;;;;;;;9.54;100.00;100630.66;5087252;28;20110;-75
2022/11/04 09:58:46;;;;;;;27.20;12.63;;;;;;;9.63;100.00;100623.53;5111560;28;20027;-75
2022/11/04 10:01:17;;;;;;;27.35;11.80;;;;;;;9.71;100.00;100626.81;5101532;28;20031;-75
2022/11/04 10:04:13;;;;;;;34.22;12.25;;;;;;;9.75;100.00;100628.47;5104481;28;20486;-76
2022/11/04 10:07:14;;;;;;;23.42;11.38;;;;;;;9.88;100.00;100635.09;5102851;28;20032;-75
2022/11/04 10:09:55;;;;;;;19.60;11.68;;;;;;;9.90;100.00;100630.69;5087470;28;20118;-76
2022/11/04 10:12:52;;;;;;;30.30;11.75;;;;;;;9.91;100.00;100634.13;5087735;28;20032;-76
2022/11/04 10:15:41;;;;;;;27.00;10.70;;;;;;;9.94;100.00;100632.34;5084642;28;20061;-76
2022/11/04 10:18:31;;;;;;;21.52;10.20;;;;;;;9.91;100.00;100641.94;5093333;28;20040;-75
2022/11/04 10:21:34;;;;;;;24.42;11.02;;;;;;;9.98;100.00;100646.16;5097095;28;20063;-75
2022/11/04 10:24:15;;;;;;;20.95;10.13;;;;;;;9.99;100.00;100642.63;5113574;28;20025;-75
2022/11/04 10:26:49;;;;;;;20.30;10.00;;;;;;;9.91;100.00;100642.84;5091608;28;20039;-76
2022/11/04 10:29:29;;;;;;;22.05;10.52;;;;;;;10.04;100.00;100646.84;5094855;28;20040;-77
2022/11/04 10:31:57;;;;;;;21.30;10.57;;;;;;;9.95;100.00;100647.06;5096995;28;20020;-76
2022/11/04 10:34:49;;;;;;;18.92;10.13;;;;;;;10.01;100.00;100654.75;5087503;28;20039;-76
2022/11/04 10:37:15;;;;;;;29.70;11.82;;;;;;;9.93;100.00;100658.41;5086085;28;20035;-76
2022/11/04 10:39:44;;;;;;;19.65;11.27;;;;;;;9.95;100.00;100667.06;5097583;28;20039;-76
2022/11/04 10:42:13;;;;;;;23.52;12.75;;;;;;;9.90;100.00;100659.31;5092734;28;20451;-76
2022/11/04 10:44:39;;;;;;;28.20;13.48;;;;;;;10.07;100.00;100672.81;5101858;28;20039;-76
2022/11/04 10:47:27;;;;;;;28.30;13.90;;;;;;;10.20;100.00;100685.53;5095776;28;20031;-76
2022/11/04 10:50:02;;;;;;;28.52;14.15;;;;;;;10.29;100.00;100680.97;5106026;28;20054;-76
2022/11/04 10:52:27;;;;;;;25.50;13.48;;;;;;;10.31;100.00;100686.19;5104396;28;20592;-76
2022/11/04 10:54:52;;;;;;;29.08;14.23;;;;;;;10.54;100.00;100696.88;5101240;28;20119;-76
2022/11/04 10:57:25;;;;;;;32.22;15.07;;;;;;;10.60;100.00;100672.41;5107150;28;20371;-76
2022/11/04 10:59:55;;;;;;;27.13;13.88;;;;;;;10.76;100.00;100686.75;5105537;28;20038;-76
2022/11/04 11:02:36;;;;;;;26.92;14.15;;;;;;;10.69;100.00;100681.72;5090758;28;20032;-76
2022/11/04 11:05:19;;;;;;;22.73;13.60;;;;;;;10.61;100.00;100683.69;5088155;28;20464;-76
2022/11/04 11:07:46;;;;;;;;;;;;;;;10.69;100.00;100679.09;5093134;28;20106;-76
2022/11/04 11:10:20;;;;;;;24.35;14.27;;;;;;;10.80;100.00;100673.63;5095749;28;19999;-76
2022/11/04 11:13:22;;;;;;;22.88;13.02;;;;;;;10.88;100.00;100675.09;5090910;28;20114;-75
2022/11/04 11:15:48;;;;;;;25.35;13.63;;;;;;;10.94;100.00;100672.34;5087615;28;20138;-75
2022/11/04 11:18:20;;;;;;;23.25;12.43;;;;;;;10.87;100.00;100675.16;5105972;28;20498;-76
2022/11/04 11:20:51;;;;;;;29.20;13.13;;;;;;;10.81;100.00;100680.53;5091583;28;20024;-76
2022/11/04 11:23:46;;;;;;;20.05;12.65;;;;;;;10.67;100.00;100694.81;5101569;28;20467;-76
2022/11/04 11:26:16;;;;;;;23.33;12.13;;;;;;;10.65;100.00;100695.72;5109985;28;20038;-76
2022/11/04 11:28:48;;;;;;;22.45;12.77;;;;;;;10.74;100.00;100705.94;5113020;28;20024;-76
2022/11/04 11:31:22;;;;;;;20.90;11.77;;;;;;;10.63;100.00;100694.94;5105261;28;20032;-76
2022/11/04 11:33:52;;;;;;;22.40;12.13;;;;;;;10.61;100.00;100692.34;5094736;28;20028;-76
2022/11/04 11:36:25;;;;;;;21.40;12.18;;;;;;;10.62;100.00;100688.00;5104994;28;20020;-75
2022/11/04 11:38:58;;;;;;;19.50;11.07;;;;;;;10.64;100.00;100696.63;5114106;28;20062;-76
2022/11/04 11:41:30;;;;;;;27.10;11.07;;;;;;;10.76;100.00;100688.50;5112544;28;20036;-75
2022/11/04 11:43:59;;;;;;;20.60;10.80;;;;;;;10.74;100.00;100691.13;5098631;28;20051;-76
2022/11/04 11:46:28;;;;;;;23.35;11.40;;;;;;;10.86;100.00;100692.56;5101492;28;20391;-75
2022/11/04 11:49:00;;;;;;;26.10;11.73;;;;;;;10.91;100.00;100684.59;5088177;28;20035;-76
2022/11/04 11:51:37;;;;;;;22.48;11.23;;;;;;;10.98;100.00;100683.53;5102181;28;20038;-75
2022/11/04 11:54:16;;;;;;;22.40;10.45;;;;;;;11.07;100.00;100674.63;5090597;28;20538;-76
2022/11/04 11:56:51;;;;;;;17.80;9.65;;;;;;;11.20;100.00;100689.88;5103565;28;20056;-75